createdAt,value
2019-02-26T00:00:04.301Z,6.43
2019-02-26T00:02:32.602Z,7.37
2019-02-26T00:05:02.884Z,7.07
2019-02-26T00:07:33.173Z,6.40
2019-02-26T00:10:04.048Z,7.23
2019-02-26T00:12:31.483Z,7.13
2019-02-26T00:15:02.565Z,7.60
2019-02-26T00:17:30.577Z,7.83
2019-02-26T00:19:58.242Z,7.50
2019-02-26T00:22:30.007Z,7.83
2019-02-26T00:24:58.316Z,7.90
2019-02-26T00:27:28.115Z,9.00
2019-02-26T00:29:55.599Z,9.97
2019-02-26T00:32:23.188Z,9.00
2019-02-26T00:34:53.072Z,10.57
2019-02-26T00:37:22.227Z,9.87
2019-02-26T00:39:51.698Z,9.87
2019-02-26T00:42:21.577Z,9.87
2019-02-26T00:44:51.364Z,9.97
2019-02-26T00:47:18.407Z,9.27
2019-02-26T00:49:46.310Z,9.87
2019-02-26T00:52:15.723Z,9.80
2019-02-26T00:54:43.403Z,11.57
2019-02-26T00:57:13.994Z,12.20
2019-02-26T00:59:48.001Z,11.33
2019-02-26T01:02:15.652Z,11.07
2019-02-26T01:04:44.570Z,10.67
2019-02-26T01:07:13.217Z,10.47
2019-02-26T01:09:40.797Z,9.80
2019-02-26T01:12:09.193Z,10.77
2019-02-26T01:14:39.163Z,10.40
2019-02-26T01:17:09.988Z,9.77
2019-02-26T01:19:38.654Z,10.17
2019-02-26T01:22:07.720Z,10.83
2019-02-26T01:24:37.048Z,10.47
2019-02-26T01:27:09.534Z,10.33
2019-02-26T01:29:37.441Z,10.37
2019-02-26T01:32:08.942Z,9.70
2019-02-26T01:34:37.807Z,10.20
2019-02-26T01:37:18.256Z,9.93
2019-02-26T01:39:54.444Z,10.47
2019-02-26T01:42:32.896Z,9.37
2019-02-26T01:45:10.540Z,17.30
2019-02-26T01:47:53.063Z,10.37
2019-02-26T01:50:21.327Z,9.33
2019-02-26T01:52:56.238Z,9.97
2019-02-26T01:55:25.310Z,10.03
2019-02-26T01:57:59.182Z,10.63
2019-02-26T02:00:30.354Z,9.43
2019-02-26T02:02:58.362Z,9.77
2019-02-26T02:05:28.751Z,9.33
2019-02-26T02:07:56.651Z,9.40
2019-02-26T02:10:25.514Z,9.20
2019-02-26T02:12:59.545Z,9.10
2019-02-26T02:15:28.672Z,8.77
2019-02-26T02:18:01.783Z,8.90
2019-02-26T02:20:42.572Z,8.90
2019-02-26T02:23:19.382Z,8.30
2019-02-26T02:25:48.472Z,7.87
2019-02-26T02:28:16.712Z,7.90
2019-02-26T02:30:52.608Z,7.70
2019-02-26T02:33:24.311Z,8.00
2019-02-26T02:36:00.805Z,7.57
2019-02-26T02:38:45.486Z,7.23
2019-02-26T02:41:13.251Z,7.67
2019-02-26T02:43:52.919Z,8.13
2019-02-26T02:46:21.078Z,8.07
2019-02-26T02:48:51.795Z,8.13
2019-02-26T02:51:19.952Z,7.87
2019-02-26T02:53:50.510Z,8.13
2019-02-26T02:56:18.340Z,8.20
2019-02-26T02:58:48.810Z,8.17
2019-02-26T03:01:17.474Z,7.90
2019-02-26T03:03:47.771Z,8.20
2019-02-26T03:06:15.244Z,7.27
2019-02-26T03:08:45.122Z,8.07
2019-02-26T03:11:12.306Z,7.70
2019-02-26T03:13:40.349Z,7.53
2019-02-26T03:16:09.414Z,8.03
2019-02-26T03:18:36.941Z,8.10
2019-02-26T03:21:04.929Z,7.23
2019-02-26T03:23:33.948Z,6.83
2019-02-26T03:26:01.882Z,7.77
2019-02-26T03:28:29.466Z,7.20
2019-02-26T03:30:57.028Z,7.67
2019-02-26T03:33:24.656Z,7.13
2019-02-26T03:35:52.194Z,7.10
2019-02-26T03:38:20.739Z,7.63
2019-02-26T03:40:51.420Z,7.60
2019-02-26T03:43:18.546Z,6.57
2019-02-26T03:45:48.086Z,7.60
2019-02-26T03:48:19.247Z,7.33
2019-02-26T03:50:45.088Z,7.97
2019-02-26T03:53:12.705Z,8.23
2019-02-26T03:55:41.989Z,7.17
2019-02-26T03:58:09.724Z,7.90
2019-02-26T04:00:38.681Z,7.93
2019-02-26T04:03:09.298Z,7.30
2019-02-26T04:05:36.485Z,8.00
2019-02-26T04:08:04.535Z,4.00
2019-02-26T04:10:32.105Z,6.00
2019-02-26T04:12:59.679Z,6.43
2019-02-26T04:15:30.009Z,3.83
2019-02-26T04:17:57.133Z,4.23
2019-02-26T04:20:27.084Z,4.50
2019-02-26T04:22:56.724Z,5.53
2019-02-26T04:25:36.757Z,4.33
2019-02-26T04:28:17.710Z,5.23
2019-02-26T04:31:23.974Z,6.27
2019-02-26T04:34:20.380Z,6.40
2019-02-26T04:37:38.730Z,6.47
2019-02-26T04:40:20.367Z,4.93
2019-02-26T04:43:22.533Z,5.80
2019-02-26T04:46:25.280Z,5.70
2019-02-26T04:48:53.673Z,7.97
2019-02-26T04:51:21.216Z,9.20
2019-02-26T04:53:51.174Z,7.50
2019-02-26T04:56:18.322Z,9.77
2019-02-26T04:58:47.755Z,9.90
2019-02-26T05:01:16.478Z,9.73
2019-02-26T05:03:44.913Z,10.73
2019-02-26T05:06:12.461Z,10.63
2019-02-26T05:08:42.333Z,11.30
2019-02-26T05:11:14.738Z,11.20
2019-02-26T05:13:38.853Z,10.40
2019-02-26T05:16:06.444Z,11.93
2019-02-26T05:18:34.602Z,10.33
2019-02-26T05:21:04.753Z,9.97
2019-02-26T05:23:33.585Z,10.93
2019-02-26T05:26:05.243Z,10.67
2019-02-26T05:28:35.311Z,9.97
2019-02-26T05:30:59.809Z,10.00
2019-02-26T05:33:28.507Z,9.27
2019-02-26T05:35:58.052Z,8.47
2019-02-26T05:38:26.487Z,10.13
2019-02-26T05:40:55.786Z,8.80
2019-02-26T05:43:26.329Z,9.57
2019-02-26T05:45:57.435Z,10.00
2019-02-26T05:48:25.961Z,9.40
2019-02-26T05:50:53.258Z,9.43
2019-02-26T05:53:20.903Z,8.97
2019-02-26T05:55:50.674Z,9.27
2019-02-26T05:58:19.362Z,9.30
2019-02-26T06:00:47.329Z,9.13
2019-02-26T06:03:16.327Z,10.13
2019-02-26T06:05:46.460Z,10.10
2019-02-26T06:08:13.731Z,10.50
2019-02-26T06:10:41.340Z,8.47
2019-02-26T06:13:10.742Z,8.80
2019-02-26T06:15:38.682Z,7.77
2019-02-26T06:18:06.291Z,9.70
2019-02-26T06:20:34.529Z,9.10
2019-02-26T06:23:03.263Z,8.67
2019-02-26T06:25:30.837Z,8.40
2019-02-26T06:28:02.269Z,5.00
2019-02-26T06:30:28.000Z,6.93
2019-02-26T06:32:59.582Z,6.53
2019-02-26T06:35:25.322Z,3.80
2019-02-26T06:37:52.991Z,3.20
2019-02-26T06:40:20.509Z,2.30
2019-02-26T06:42:48.184Z,2.47
2019-02-26T06:45:16.709Z,2.10
2019-02-26T06:47:45.755Z,2.50
2019-02-26T06:50:16.047Z,2.20
2019-02-26T06:52:46.885Z,1.50
2019-02-26T06:55:12.930Z,1.73
2019-02-26T06:57:41.389Z,1.97
2019-02-26T07:00:11.258Z,2.10
2019-02-26T07:02:38.802Z,2.10
2019-02-26T07:05:08.523Z,1.37
2019-02-26T07:07:36.086Z,1.50
2019-02-26T07:10:04.556Z,1.30
2019-02-26T07:12:32.286Z,1.40
2019-02-26T07:15:00.056Z,1.37
2019-02-26T07:17:31.860Z,1.17
2019-02-26T07:19:57.798Z,1.33
2019-02-26T07:22:26.800Z,1.50
2019-02-26T07:24:54.346Z,1.60
2019-02-26T07:27:22.005Z,1.27
2019-02-26T07:29:52.157Z,1.40
2019-02-26T07:32:20.193Z,1.00
2019-02-26T07:34:50.200Z,1.10
2019-02-26T07:37:17.776Z,1.00
2019-02-26T07:39:47.308Z,1.20
2019-02-26T07:42:16.941Z,1.20
2019-02-26T07:44:44.159Z,1.23
2019-02-26T07:47:11.699Z,1.17
2019-02-26T07:49:39.346Z,1.00
2019-02-26T07:52:08.690Z,1.20
2019-02-26T07:54:37.752Z,1.30
2019-02-26T07:57:05.892Z,1.00
2019-02-26T07:59:34.865Z,1.10
2019-02-26T08:02:06.252Z,1.40
2019-02-26T08:04:36.443Z,1.23
2019-02-26T08:07:04.232Z,1.30
2019-02-26T08:09:31.846Z,1.00
2019-02-26T08:11:59.402Z,1.30
2019-02-26T08:14:26.959Z,1.40
2019-02-26T08:16:56.291Z,1.60
2019-02-26T08:19:29.775Z,1.37
2019-02-26T08:21:54.914Z,1.30
2019-02-26T08:24:24.623Z,2.37
2019-02-26T08:26:52.414Z,1.33
2019-02-26T08:29:20.011Z,1.30
2019-02-26T08:52:08.542Z,1.00
2019-02-26T08:54:50.906Z,0.93
2019-02-26T08:57:26.038Z,0.80
2019-02-26T09:00:06.491Z,0.83
2019-02-26T09:02:30.136Z,0.80
2019-02-26T09:04:59.285Z,0.90
2019-02-26T09:07:27.211Z,1.00
2019-02-26T09:09:57.324Z,0.90
2019-02-26T09:12:24.620Z,1.00
2019-02-26T09:14:53.825Z,0.80
2019-02-26T09:17:24.409Z,1.00
2019-02-26T09:19:55.962Z,0.73
2019-02-26T09:22:21.151Z,0.80
2019-02-26T09:24:51.937Z,0.60
2019-02-26T09:27:19.467Z,0.80
2019-02-26T09:29:51.318Z,0.80
2019-02-26T09:32:18.278Z,0.70
2019-02-26T09:34:46.185Z,0.83
2019-02-26T09:37:13.832Z,0.70
2019-02-26T09:39:41.586Z,0.90
2019-02-26T09:42:09.354Z,1.37
2019-02-26T09:44:37.130Z,0.70
2019-02-26T09:47:06.960Z,0.77
2019-02-26T09:49:35.713Z,0.63
2019-02-26T09:52:03.950Z,0.70
2019-02-26T09:54:37.696Z,0.70
2019-02-26T09:57:02.356Z,0.70
2019-02-26T09:59:31.371Z,0.60
2019-02-26T10:02:01.150Z,0.80
2019-02-26T10:04:28.996Z,0.50
2019-02-26T10:06:56.976Z,0.60
2019-02-26T10:09:24.744Z,0.80
2019-02-26T10:11:52.498Z,0.70
2019-02-26T10:14:20.285Z,0.70
2019-02-26T10:16:51.942Z,0.60
2019-02-26T10:19:19.587Z,0.50
2019-02-26T10:21:48.369Z,0.80
2019-02-26T10:24:18.754Z,0.80
2019-02-26T10:26:46.071Z,0.57
2019-02-26T10:29:13.793Z,0.80
2019-02-26T10:31:41.730Z,0.73
2019-02-26T10:34:12.478Z,0.80
2019-02-26T10:36:51.308Z,0.50
2019-02-26T10:39:12.533Z,0.50
2019-02-26T10:41:42.272Z,0.53
2019-02-26T10:44:10.016Z,0.80
2019-02-26T10:46:39.909Z,0.60
2019-02-26T10:49:07.659Z,0.60
2019-02-26T10:51:35.559Z,0.40
2019-02-26T10:54:09.655Z,0.60
2019-02-26T10:56:39.222Z,0.60
2019-02-26T10:59:08.623Z,0.50
2019-02-26T11:01:35.622Z,0.40
2019-02-26T11:08:47.519Z,0.47
2019-02-26T11:11:20.699Z,0.50
2019-02-26T11:13:51.950Z,0.50
2019-02-26T11:16:24.878Z,0.60
2019-02-26T11:18:47.895Z,0.57
2019-02-26T11:21:15.533Z,0.50
2019-02-26T11:23:47.957Z,0.70
2019-02-26T11:26:32.590Z,0.63
2019-02-26T11:29:00.595Z,0.70
2019-02-26T11:31:44.814Z,0.63
2019-02-26T11:34:13.579Z,0.57
2019-02-26T11:36:44.134Z,0.60
2019-02-26T11:39:12.240Z,0.50
2019-02-26T11:41:42.752Z,0.77
2019-02-26T11:44:12.652Z,0.73
2019-02-26T11:46:40.272Z,0.60
2019-02-26T11:49:16.944Z,0.60
2019-02-26T11:52:01.595Z,0.60
2019-02-26T11:54:32.683Z,0.50
2019-02-26T12:00:39.362Z,0.67
2019-02-26T12:03:06.767Z,0.60
2019-02-26T12:05:36.691Z,0.60
2019-02-26T12:08:04.425Z,0.60
2019-02-26T12:10:40.520Z,0.60
2019-02-26T12:13:08.750Z,0.50
2019-02-26T12:15:38.962Z,0.60
2019-02-26T12:18:06.904Z,0.40
2019-02-26T12:20:54.990Z,0.40
2019-02-26T12:23:49.841Z,0.60
2019-02-26T12:26:27.971Z,0.43
2019-02-26T12:29:31.339Z,0.57
2019-02-26T12:32:01.210Z,0.67
2019-02-26T12:34:32.381Z,0.50
2019-02-26T12:37:19.265Z,0.50
2019-02-26T12:39:58.889Z,0.60
2019-02-26T12:42:30.289Z,0.60
2019-02-26T12:45:03.864Z,0.57
2019-02-26T12:47:34.030Z,0.77
2019-02-26T12:50:09.690Z,0.60
2019-02-26T12:52:44.578Z,0.60
2019-02-26T12:58:38.796Z,0.50
2019-02-26T13:01:08.287Z,0.70
2019-02-26T13:04:01.869Z,0.43
2019-02-26T13:06:34.459Z,0.60
2019-02-26T13:09:04.285Z,0.60
2019-02-26T13:11:32.112Z,0.40
2019-02-26T13:14:00.145Z,0.47
2019-02-26T13:16:29.887Z,0.60
2019-02-26T13:19:00.803Z,0.60
2019-02-26T13:38:44.698Z,0.70
2019-02-26T13:42:05.681Z,0.60
2019-02-26T13:59:58.895Z,0.50
2019-02-26T14:29:40.010Z,0.80
2019-02-26T14:32:08.865Z,0.67
2019-02-26T14:44:28.492Z,0.70
2019-02-26T15:59:18.965Z,0.80
2019-02-26T16:01:46.700Z,0.80
2019-02-26T16:04:14.333Z,0.93
2019-02-26T16:06:42.043Z,0.60
2019-02-26T16:09:10.039Z,0.90
2019-02-26T16:11:37.735Z,0.90
2019-02-26T16:14:05.483Z,0.87
2019-02-26T16:16:33.435Z,1.00
2019-02-26T16:19:01.339Z,0.83
2019-02-26T16:21:28.863Z,1.17
2019-02-26T16:24:16.035Z,0.80
2019-02-26T16:26:44.720Z,1.00
2019-02-26T16:29:13.931Z,0.80
2019-02-26T16:31:41.557Z,1.20
2019-02-26T16:34:09.357Z,0.90
2019-02-26T16:36:37.048Z,1.00
2019-02-26T16:39:05.960Z,0.90
2019-02-26T16:41:35.680Z,1.00
2019-02-26T16:44:03.392Z,0.80
2019-02-26T16:46:31.020Z,0.80
2019-02-26T16:49:00.594Z,1.17
2019-02-26T16:51:28.465Z,0.80
2019-02-26T16:53:56.051Z,1.10
2019-02-26T16:56:23.631Z,1.17
2019-02-26T16:58:54.878Z,0.87
2019-02-26T17:01:22.558Z,0.83
2019-02-26T17:14:32.029Z,0.93
2019-02-26T17:17:01.561Z,1.10
2019-02-26T17:19:37.308Z,1.03
2019-02-26T17:22:16.621Z,1.20
2019-02-26T17:36:27.386Z,1.00
2019-02-26T19:17:52.345Z,1.37
2019-02-26T19:20:22.151Z,1.20
2019-02-26T19:22:51.961Z,1.90
2019-02-26T19:25:19.948Z,1.77
2019-02-26T19:27:52.869Z,1.60
2019-02-26T19:30:20.786Z,1.40
2019-02-26T19:32:48.648Z,1.37
2019-02-26T19:35:16.819Z,1.60
2019-02-26T19:37:44.723Z,1.40
2019-02-26T19:40:14.826Z,1.80
2019-02-26T19:42:44.456Z,1.57
2019-02-26T19:45:12.243Z,1.43
2019-02-26T19:47:40.880Z,1.30
2019-02-26T19:50:11.710Z,1.40
2019-02-26T19:52:40.253Z,1.40
2019-02-26T19:55:12.907Z,1.60
2019-02-26T19:57:44.066Z,1.60
2019-02-26T20:00:12.290Z,1.50
2019-02-26T20:02:40.158Z,1.60
2019-02-26T20:05:09.496Z,1.50
2019-02-26T20:07:38.589Z,1.60
2019-02-26T20:10:07.668Z,1.43
2019-02-26T20:12:35.843Z,1.30
2019-02-26T20:15:03.701Z,2.30
2019-02-26T20:17:31.395Z,2.30
2019-02-26T20:19:59.168Z,1.70
2019-02-26T20:27:04.945Z,1.57
2019-02-26T20:29:56.098Z,1.40
2019-02-26T20:32:30.926Z,1.40
2019-02-26T20:53:50.481Z,1.20
2019-02-26T20:56:18.611Z,1.70
2019-02-26T20:58:56.417Z,1.57
2019-02-26T21:02:20.040Z,1.60
2019-02-26T21:05:48.641Z,1.80
2019-02-26T21:11:44.972Z,1.43
2019-02-26T21:14:27.583Z,1.47
2019-02-26T21:17:16.727Z,1.70
2019-02-26T21:19:44.483Z,1.70
2019-02-26T21:22:12.085Z,1.73
2019-02-26T21:24:40.011Z,1.70
2019-02-26T21:27:07.858Z,1.80
2019-02-26T21:29:38.717Z,1.90
2019-02-26T21:32:05.254Z,1.60
2019-02-26T21:34:33.234Z,1.90
2019-02-26T21:37:00.921Z,1.60
2019-02-26T21:39:28.666Z,1.70
2019-02-26T21:41:56.535Z,1.40
2019-02-26T21:44:24.311Z,1.80
2019-02-26T21:46:55.829Z,1.63
2019-02-26T21:49:22.905Z,1.83
2019-02-26T21:51:50.596Z,1.20
2019-02-26T21:54:18.253Z,1.80
2019-02-26T21:56:48.702Z,1.70
2019-02-26T21:59:15.310Z,1.57
2019-02-26T22:01:45.868Z,1.73
2019-02-26T22:04:12.525Z,1.77
2019-02-26T22:06:44.292Z,1.60
2019-02-26T22:09:09.739Z,1.40
2019-02-26T22:11:37.703Z,1.40
2019-02-26T22:14:05.385Z,1.67
2019-02-26T22:16:35.035Z,1.40
2019-02-26T22:19:06.832Z,1.50
2019-02-26T22:21:32.739Z,1.83
2019-02-26T22:24:00.545Z,1.37
2019-02-26T22:26:28.344Z,1.30
2019-02-26T22:28:56.101Z,1.20
2019-02-26T22:31:28.704Z,1.70
2019-02-26T22:33:54.807Z,1.60
2019-02-26T22:36:22.795Z,1.37
2019-02-26T22:38:50.477Z,1.27
2019-02-26T22:41:18.088Z,1.37
2019-02-26T22:43:47.523Z,1.10
2019-02-26T22:46:16.185Z,1.40
2019-02-26T22:48:44.572Z,1.33
2019-02-26T22:51:13.469Z,1.70
2019-02-26T22:53:41.127Z,1.43
2019-02-26T22:56:10.211Z,1.90
2019-02-26T22:58:38.023Z,1.60
2019-02-26T23:01:37.878Z,1.60
2019-02-26T23:04:05.564Z,1.60
2019-02-26T23:06:33.203Z,1.20
2019-02-26T23:09:01.037Z,1.50
2019-02-26T23:11:31.918Z,1.43
2019-02-26T23:14:02.672Z,1.70
2019-02-26T23:16:29.641Z,1.77
2019-02-26T23:18:57.456Z,1.73
2019-02-26T23:21:25.194Z,1.50
2019-02-26T23:23:55.670Z,1.30
2019-02-26T23:26:23.625Z,1.70
2019-02-26T23:28:54.487Z,1.47
2019-02-26T23:31:22.141Z,1.47
2019-02-26T23:33:50.216Z,1.70
2019-02-26T23:36:17.904Z,1.70
2019-02-26T23:38:45.652Z,2.10
2019-02-26T23:41:15.880Z,1.47
2019-02-26T23:43:45.417Z,1.70
2019-02-26T23:46:15.142Z,1.60
2019-02-26T23:48:45.123Z,1.70
2019-02-26T23:51:13.001Z,1.90
2019-02-26T23:53:42.938Z,1.97
2019-02-26T23:56:10.720Z,1.90
2019-02-26T23:58:38.527Z,2.30
